De Haan, Belgium
Current Conditions -  °F | °C
As of 1:20 PM on Thursday 30 Oct 2014 (Local Time) from EBOS Reporting Station
Clear Clear  
Wind Chill: 61°   Ceiling: Unl
Heat Index: 61°   Visibility: 5mi
Dew Point: 55°   Wind: 8mph
Humidity: 82%   Direction: 180°S
Pressure: 30.15"   Gusts: NA
Location:  51.27°N, 3.03°E
Report Text: EBOS 301220Z 18007KT 8000 NSC 16/13 Q1021 NOSIG
Loading
Personal Weather Stations






























Interactive Weather Map
Tropical Storm Tracking
New forecast layout! Learn more

10-Day Weather Forecast

Advertisements
Track Severe Weather on mobile